Main page
METAR-TAF:

METAR-TAF

Airports :

Hof–Plauen Airport

Hof, Germany

latitude: 50-19N, longitude: 011-53E, elevation: 567 m

Current weather observation

The report was made 40 minutes ago, at 10:50 UTC
Wind 17 kt from the South/Southwest
Temperature 0°C
Humidity 80%
Pressure 1015 hPa
Visibility 10 km or more
no clouds below 1500 m and no cumulonimbus

METAR: EDQM 061050Z 21017KT CAVOK M00/M03 Q1015

Time: 12:30 (11:30 UTC)

Forecast

The report was made 3 hours and 30 minutes ago, at 08:00 UTC
Forecast valid from 06 at 09 UTC to 06 at 18 UTC
Wind 15 kt from the South/Southwest
Visibility: 6000 m
Broken clouds at a height of 600 ft
Becoming
from 06 at 09 UTC to 06 at 12 UTC
Scattered clouds at a height of 600 ft
Temporary
from 06 at 09 UTC to 06 at 18 UTC
Wind 20 kt from the Southwest with gusts up to 30 kt

TAF: EDQM 060800Z 0609/0618 21015KT 6000 BKN006 BECMG 0609/0612 SCT006 TEMPO 0609/0618 22020G30KT

Weather observations and forecasts of more than 4000 airports (METAR and TAF reports).

The available stations are represented by yellow and red dots on the map.

Hover mouse over dot to see the name of the station.

Then click to see weather observations and forecasts.

To change the map : click on the green buttons with a black cross to zoom in, on the green button with a dash to zoom out, or on the green arrows for adjacent maps.


METAR-TAF: